Time;durP1;ratioP1;P1;durP2;ratioP2;P2;SDS_P1;SDS_P2;PMS_P1;PMS_P2;Temp;Humidity;BMP_temperature;BMP_pressure;BME280_temperature;BME280_humidity;BME280_pressure;Samples;Min_cycle;Max_cycle;Signal;HPM_P1;HPM_P2
2021/12/16 00:05:04;;;;;;;94.73;58.37;;;10.50;99.90;;;;;;5057971;28;20472;-81
2021/12/16 00:10:08;;;;;;;83.57;51.70;;;10.50;99.90;;;;;;5056445;28;20087;-83
2021/12/16 00:30:00;;;;;;;85.63;53.20;;;10.50;99.90;;;;;;5058067;28;20400;-81
2021/12/16 00:32:21;;;;;;;78.10;49.03;;;10.50;99.90;;;;;;5057672;28;20029;-81
2021/12/16 00:34:48;;;;;;;87.07;53.40;;;10.40;99.90;;;;;;5041877;28;20036;-83
2021/12/16 00:37:14;;;;;;;79.47;51.30;;;10.50;99.90;;;;;;5057581;28;20052;-83
2021/12/16 00:39:41;;;;;;;81.07;50.73;;;10.50;99.90;;;;;;5055221;28;20482;-85
2021/12/16 00:42:13;;;;;;;78.67;49.47;;;10.50;99.90;;;;;;5055796;28;20024;-82
2021/12/16 00:47:29;;;;;;;78.23;50.73;;;10.40;99.90;;;;;;5056236;28;20116;-84
2021/12/16 00:50:05;;;;;;;80.07;49.70;;;10.40;99.90;;;;;;5055724;28;20025;-83
2021/12/16 00:55:33;;;;;;;84.93;52.27;;;10.40;99.90;;;;;;5057252;28;20059;-84
2021/12/16 00:57:58;;;;;;;84.03;49.88;;;10.40;99.90;;;;;;5027270;28;20163;-84
2021/12/16 01:00:27;;;;;;;78.80;48.03;;;10.40;99.90;;;;;;5022377;28;20076;-83
2021/12/16 01:03:04;;;;;;;77.80;48.17;;;10.40;99.90;;;;;;5038301;28;20029;-85
2021/12/16 01:49:58;;;;;;;74.43;46.20;;;10.40;99.90;;;;;;5063604;28;20110;-82
2021/12/16 01:55:11;;;;;;;72.03;47.43;;;10.40;99.90;;;;;;5063289;28;20095;-82
2021/12/16 01:57:45;;;;;;;76.53;46.53;;;10.40;99.90;;;;;;5059330;28;20039;-83
2021/12/16 02:00:25;;;;;;;73.70;46.03;;;10.30;99.90;;;;;;5030043;28;20033;-82
2021/12/16 02:02:58;;;;;;;79.37;46.60;;;10.40;99.90;;;;;;5061357;28;20036;-83
2021/12/16 02:10:49;;;;;;;72.97;46.73;;;10.40;99.90;;;;;;5062403;28;20343;-83
2021/12/16 02:30:29;;;;;;;66.13;43.90;;;10.40;99.90;;;;;;5059451;28;20040;-83
2021/12/16 02:35:46;;;;;;;70.00;44.60;;;10.40;99.90;;;;;;5059130;28;20132;-83
2021/12/16 02:38:16;;;;;;;72.53;44.73;;;10.40;99.90;;;;;;5044164;28;20049;-84
2021/12/16 02:40:45;;;;;;;68.93;43.20;;;10.30;99.90;;;;;;5060888;28;20025;-83
2021/12/16 02:43:38;;;;;;;68.13;43.50;;;10.30;99.90;;;;;;5060941;28;20025;-84
2021/12/16 02:48:43;;;;;;;70.27;43.63;;;10.30;99.90;;;;;;5044323;28;20045;-83
2021/12/16 02:51:22;;;;;;;70.73;44.37;;;10.40;99.90;;;;;;5059619;28;20085;-84
2021/12/16 02:54:01;;;;;;;70.27;43.93;;;10.30;99.90;;;;;;5064666;28;20017;-83
2021/12/16 02:56:28;;;;;;;67.77;43.70;;;10.30;99.90;;;;;;5066455;28;20021;-83
2021/12/16 02:58:56;;;;;;;68.37;43.93;;;10.30;99.90;;;;;;5060732;28;20035;-82
2021/12/16 03:01:24;;;;;;;71.20;44.63;;;10.30;99.90;;;;;;5041683;28;20339;-79
2021/12/16 03:03:51;;;;;;;65.17;42.87;;;10.30;99.90;;;;;;5059350;28;20033;-84
2021/12/16 03:06:18;;;;;;;67.33;41.93;;;10.30;99.90;;;;;;5059329;28;20037;-83
2021/12/16 03:08:44;;;;;;;69.33;43.93;;;10.20;99.90;;;;;;5042175;28;20392;-84
2021/12/16 03:13:57;;;;;;;67.33;43.67;;;10.20;99.90;;;;;;5058909;28;20037;-84
2021/12/16 03:19:19;;;;;;;67.93;43.40;;;10.20;99.90;;;;;;5059345;28;20047;-82
2021/12/16 03:21:55;;;;;;;70.47;44.03;;;10.10;99.90;;;;;;5058011;28;20473;-83
2021/12/16 03:24:57;;;;;;;64.83;42.23;;;10.20;99.90;;;;;;5058468;28;20052;-84
2021/12/16 03:27:45;;;;;;;74.33;43.10;;;10.20;99.90;;;;;;5058967;28;20132;-83
2021/12/16 03:35:34;;;;;;;65.50;41.83;;;10.20;99.90;;;;;;5044757;28;20091;-84
2021/12/16 03:38:05;;;;;;;70.40;42.53;;;10.20;99.90;;;;;;5042319;28;20448;-83
2021/12/16 03:40:32;;;;;;;69.70;43.30;;;10.20;99.90;;;;;;5059907;28;20052;-83
2021/12/16 03:43:07;;;;;;;67.17;42.73;;;10.10;99.90;;;;;;5058098;28;20051;-83
2021/12/16 03:48:43;;;;;;;73.70;43.20;;;10.10;99.90;;;;;;5059997;28;20039;-82
2021/12/16 03:51:18;;;;;;;71.03;43.08;;;10.10;99.90;;;;;;5059439;28;20112;-83
2021/12/16 03:53:49;;;;;;;70.13;41.57;;;10.10;99.90;;;;;;5059491;28;20124;-83
2021/12/16 03:56:16;;;;;;;68.67;41.50;;;10.00;99.90;;;;;;5057924;28;20021;-82
2021/12/16 03:58:42;;;;;;;70.33;43.37;;;10.00;99.90;;;;;;5057707;28;20123;-83
2021/12/16 04:01:13;;;;;;;66.37;41.50;;;10.10;99.90;;;;;;5056389;28;20063;-83
2021/12/16 04:03:39;;;;;;;65.33;40.67;;;10.00;99.90;;;;;;5058022;28;20032;-83
2021/12/16 04:06:07;;;;;;;70.97;42.73;;;10.10;99.90;;;;;;5057438;28;20029;-83
2021/12/16 04:08:33;;;;;;;65.57;42.07;;;10.10;99.90;;;;;;5056375;28;20048;-83
2021/12/16 04:11:11;;;;;;;69.83;42.07;;;10.10;99.90;;;;;;5055780;28;20029;-83
2021/12/16 04:13:53;;;;;;;66.63;41.37;;;10.10;99.90;;;;;;5055923;28;20025;-83
2021/12/16 04:16:25;;;;;;;67.87;42.53;;;10.10;99.90;;;;;;5055484;28;20070;-82
2021/12/16 04:18:52;;;;;;;68.00;42.00;;;10.10;99.90;;;;;;5057409;28;20037;-83
2021/12/16 04:21:19;;;;;;;65.67;41.73;;;10.10;99.90;;;;;;5056522;28;20027;-82
2021/12/16 04:23:47;;;;;;;66.03;41.70;;;10.10;99.90;;;;;;5038861;28;20029;-83
2021/12/16 04:26:14;;;;;;;68.00;42.57;;;10.00;99.90;;;;;;5055085;28;20092;-83
2021/12/16 04:28:40;;;;;;;66.97;42.37;;;10.00;99.90;;;;;;5055792;28;20203;-83
2021/12/16 04:31:05;;;;;;;69.83;42.17;;;10.00;99.90;;;;;;5056481;28;20480;-83
2021/12/16 04:33:31;;;;;;;69.67;42.13;;;10.00;99.90;;;;;;5024775;28;20033;-82
2021/12/16 04:35:57;;;;;;;65.10;40.50;;;9.90;99.90;;;;;;5057883;28;20056;-83
2021/12/16 04:38:23;;;;;;;67.67;41.63;;;9.90;99.90;;;;;;5040215;28;20045;-84
2021/12/16 04:40:49;;;;;;;64.27;41.07;;;9.90;99.90;;;;;;5040119;28;20514;-82
2021/12/16 04:43:20;;;;;;;65.13;41.13;;;9.80;99.90;;;;;;5056551;28;20033;-83
2021/12/16 04:45:47;;;;;;;60.83;39.20;;;9.80;99.90;;;;;;5056832;28;20099;-83
2021/12/16 04:48:13;;;;;;;68.37;41.50;;;9.70;99.90;;;;;;5055125;28;20095;-82
2021/12/16 04:50:38;;;;;;;65.47;41.00;;;9.70;99.90;;;;;;5053009;28;20017;-81
2021/12/16 04:53:04;;;;;;;67.43;41.03;;;9.60;99.90;;;;;;5053104;28;20033;-81
2021/12/16 04:55:30;;;;;;;67.67;42.27;;;9.50;99.90;;;;;;5035828;28;20476;-79
2021/12/16 04:57:56;;;;;;;63.17;40.07;;;9.40;99.90;;;;;;5052266;28;20508;-82
2021/12/16 05:00:24;;;;;;;67.60;41.93;;;9.30;99.90;;;;;;5052486;28;20033;-82
2021/12/16 05:02:51;;;;;;;67.20;40.93;;;9.20;99.90;;;;;;5052246;28;20025;-83
2021/12/16 05:05:17;;;;;;;67.53;40.43;;;9.10;99.90;;;;;;5056291;28;20059;-83
2021/12/16 05:07:43;;;;;;;67.23;42.03;;;9.00;99.90;;;;;;5058713;28;20064;-82
2021/12/16 05:10:13;;;;;;;67.60;40.47;;;8.90;99.90;;;;;;5058014;28;20092;-83
2021/12/16 05:12:53;;;;;;;67.53;40.93;;;8.90;99.90;;;;;;5058321;28;20025;-84
2021/12/16 05:15:25;;;;;;;73.60;41.70;;;8.80;99.90;;;;;;5060343;28;20075;-83
2021/12/16 05:17:54;;;;;;;76.10;44.47;;;8.70;99.90;;;;;;5059256;28;20032;-82
2021/12/16 05:20:24;;;;;;;71.10;43.23;;;8.70;99.90;;;;;;5041880;28;20112;-82
2021/12/16 05:25:50;;;;;;;70.60;41.97;;;8.60;99.90;;;;;;5059588;28;20036;-83
2021/12/16 05:28:19;;;;;;;72.23;42.30;;;8.60;99.90;;;;;;5059380;28;20104;-83
2021/12/16 05:30:45;;;;;;;69.03;40.30;;;8.60;99.90;;;;;;5055610;28;20479;-82
2021/12/16 05:33:12;;;;;;;69.00;40.00;;;8.50;99.90;;;;;;5052049;28;20044;-82
2021/12/16 05:35:39;;;;;;;66.60;40.27;;;8.60;99.90;;;;;;5053203;28;20074;-82
2021/12/16 05:38:05;;;;;;;68.73;40.53;;;8.50;99.90;;;;;;5019898;28;20029;-83
2021/12/16 05:40:31;;;;;;;72.03;42.00;;;8.50;99.90;;;;;;5035991;28;20036;-82
2021/12/16 05:43:00;;;;;;;72.70;43.13;;;8.50;99.90;;;;;;5036206;28;20029;-83
2021/12/16 05:45:27;;;;;;;73.20;42.33;;;8.40;99.90;;;;;;5051836;28;20025;-83
2021/12/16 05:47:55;;;;;;;69.93;42.63;;;8.40;99.90;;;;;;5052043;28;20450;-80
2021/12/16 05:50:22;;;;;;;76.67;42.87;;;8.40;99.90;;;;;;5052203;28;20028;-82
2021/12/16 05:52:48;;;;;;;76.37;44.43;;;8.30;99.90;;;;;;5054396;28;20029;-81
2021/12/16 05:55:15;;;;;;;76.27;45.03;;;8.30;99.90;;;;;;5056832;28;20048;-83
2021/12/16 05:57:42;;;;;;;71.73;41.87;;;8.20;99.90;;;;;;5024295;28;20148;-83
2021/12/16 06:00:17;;;;;;;70.23;42.20;;;8.20;99.90;;;;;;5055418;28;20027;-82
2021/12/16 06:02:43;;;;;;;68.60;40.77;;;8.10;99.90;;;;;;5053433;28;20064;-82
2021/12/16 06:05:09;;;;;;;66.67;39.80;;;8.10;99.90;;;;;;5053085;28;20064;-79
2021/12/16 06:07:35;;;;;;;70.37;41.53;;;8.00;99.90;;;;;;5052682;28;20538;-80
2021/12/16 06:10:02;;;;;;;68.23;41.07;;;8.00;99.90;;;;;;5054921;28;20033;-80
2021/12/16 06:12:28;;;;;;;72.67;40.97;;;8.00;99.90;;;;;;5054455;28;20396;-80
2021/12/16 06:28:19;;;;;;;70.40;40.97;;;7.70;99.90;;;;;;5056370;28;20072;-80
2021/12/16 06:30:46;;;;;;;67.33;39.47;;;7.70;99.90;;;;;;5055190;28;20033;-81
2021/12/16 06:33:16;;;;;;;67.17;38.20;;;7.60;99.90;;;;;;5038602;28;20037;-81
2021/12/16 06:35:42;;;;;;;66.73;39.70;;;7.60;99.90;;;;;;5055512;28;20048;-81
2021/12/16 06:38:08;;;;;;;68.90;40.47;;;7.50;99.90;;;;;;5054994;28;20128;-80
2021/12/16 06:40:34;;;;;;;66.60;39.10;;;7.40;99.90;;;;;;5055280;28;20025;-80
2021/12/16 06:43:02;;;;;;;66.70;38.87;;;7.30;99.90;;;;;;5038343;28;20415;-80
2021/12/16 06:45:32;;;;;;;66.20;39.50;;;7.30;99.90;;;;;;5055840;28;20108;-80
2021/12/16 06:48:04;;;;;;;67.50;40.90;;;7.20;99.90;;;;;;5055061;28;20037;-81
2021/12/16 06:53:00;;;;;;;66.10;38.27;;;7.20;99.90;;;;;;5055068;28;20138;-80
2021/12/16 06:55:37;;;;;;;65.73;38.17;;;7.30;99.90;;;;;;5054728;28;20120;-80
2021/12/16 06:58:28;;;;;;;68.37;38.37;;;7.20;99.90;;;;;;5054916;28;20043;-81
2021/12/16 07:01:06;;;;;;;72.83;39.20;;;7.30;99.90;;;;;;5054934;28;20134;-81
2021/12/16 07:03:44;;;;;;;75.43;40.53;;;7.30;99.90;;;;;;5054802;28;20029;-81
2021/12/16 07:06:11;;;;;;;83.37;39.97;;;7.30;99.90;;;;;;5040552;28;20025;-81
2021/12/16 07:08:36;;;;;;;103.10;40.90;;;7.30;99.90;;;;;;5054560;28;20060;-81
2021/12/16 07:11:03;;;;;;;95.47;42.60;;;7.30;99.90;;;;;;5056023;28;20373;-80
2021/12/16 07:13:38;;;;;;;91.97;40.50;;;7.30;99.90;;;;;;5054860;28;20029;-81
2021/12/16 07:16:04;;;;;;;99.17;40.70;;;7.30;99.90;;;;;;5039005;28;20021;-81
2021/12/16 07:18:30;;;;;;;123.10;41.93;;;7.30;99.90;;;;;;5054440;28;20033;-80
2021/12/16 07:20:56;;;;;;;150.53;45.20;;;7.30;99.90;;;;;;5038612;28;20033;-81
2021/12/16 07:23:23;;;;;;;142.87;43.00;;;7.30;99.90;;;;;;5055550;28;20445;-80
2021/12/16 07:25:49;;;;;;;113.90;41.03;;;7.30;99.90;;;;;;5062653;28;20025;-80
2021/12/16 07:28:15;;;;;;;96.73;41.00;;;7.30;99.90;;;;;;5068930;28;20040;-80
2021/12/16 07:30:44;;;;;;;118.27;42.60;;;7.40;99.90;;;;;;5063563;28;20041;-79
2021/12/16 07:33:12;;;;;;;90.40;40.73;;;7.50;99.90;;;;;;5058310;28;20112;-80
2021/12/16 07:35:40;;;;;;;90.93;40.70;;;7.60;99.90;;;;;;5056782;28;20027;-79
2021/12/16 07:38:06;;;;;;;104.63;42.67;;;7.70;99.90;;;;;;5054613;28;20091;-80
2021/12/16 07:40:31;;;;;;;93.57;39.77;;;7.70;99.90;;;;;;5038148;28;20048;-81
2021/12/16 07:45:43;;;;;;;93.40;36.67;;;8.00;99.90;;;;;;5056024;28;20071;-80
2021/12/16 07:48:11;;;;;;;102.77;38.10;;;8.00;99.90;;;;;;5055266;28;20029;-80
2021/12/16 07:50:38;;;;;;;99.53;36.93;;;8.00;99.90;;;;;;5053824;28;20029;-81
2021/12/16 07:53:05;;;;;;;81.00;36.03;;;8.10;99.90;;;;;;5053618;28;20025;-80
2021/12/16 07:55:31;;;;;;;93.47;35.80;;;8.00;99.90;;;;;;5054009;28;20051;-81
2021/12/16 07:57:57;;;;;;;83.67;36.27;;;8.10;99.90;;;;;;5054504;28;20090;-80
2021/12/16 08:00:26;;;;;;;105.50;36.70;;;8.10;99.90;;;;;;5037255;28;20159;-80
2021/12/16 08:02:52;;;;;;;101.23;35.17;;;8.20;99.90;;;;;;5053971;28;20450;-81
2021/12/16 08:05:21;;;;;;;103.30;35.07;;;8.20;99.90;;;;;;5053766;28;20029;-81
2021/12/16 08:07:47;;;;;;;87.60;35.17;;;8.20;99.90;;;;;;5055440;28;20373;-82
2021/12/16 08:10:18;;;;;;;80.77;34.73;;;8.20;99.90;;;;;;5053857;28;20476;-82
2021/12/16 08:12:44;;;;;;;81.47;34.80;;;8.20;99.90;;;;;;5054545;28;20114;-82
2021/12/16 08:15:10;;;;;;;84.23;34.97;;;8.20;99.90;;;;;;5020330;28;20458;-81
2021/12/16 08:17:36;;;;;;;80.93;34.33;;;8.20;99.90;;;;;;5053354;28;20029;-81
2021/12/16 08:20:04;;;;;;;74.30;34.27;;;8.30;99.90;;;;;;5053274;28;20025;-82
2021/12/16 08:22:30;;;;;;;79.57;36.53;;;8.30;99.90;;;;;;5054090;28;20029;-82
2021/12/16 08:24:56;;;;;;;83.67;34.13;;;8.30;99.90;;;;;;5053497;28;20151;-81
2021/12/16 08:27:22;;;;;;;71.70;35.40;;;8.40;99.90;;;;;;5054293;28;20524;-82
2021/12/16 08:29:48;;;;;;;71.47;36.47;;;8.40;99.90;;;;;;5036590;28;20115;-80
2021/12/16 08:32:14;;;;;;;82.47;36.43;;;8.50;99.90;;;;;;5059132;28;20083;-82
2021/12/16 08:34:42;;;;;;;72.03;34.77;;;8.60;99.90;;;;;;5044767;28;20029;-81
2021/12/16 08:37:09;;;;;;;71.50;34.60;;;8.60;99.90;;;;;;5060590;28;20047;-83
2021/12/16 08:39:36;;;;;;;71.53;34.90;;;8.60;99.90;;;;;;5041874;28;20057;-81
2021/12/16 08:42:05;;;;;;;78.40;34.67;;;8.60;99.90;;;;;;5058507;28;20060;-84
2021/12/16 08:44:31;;;;;;;76.43;35.93;;;8.60;99.90;;;;;;5057664;28;20029;-84
2021/12/16 08:47:05;;;;;;;77.30;38.10;;;8.70;99.90;;;;;;5041541;28;20029;-82
2021/12/16 08:49:31;;;;;;;76.97;40.07;;;8.70;99.90;;;;;;5059218;28;20025;-82
2021/12/16 08:52:00;;;;;;;87.03;41.03;;;8.80;99.90;;;;;;5058981;28;20025;-82
2021/12/16 08:54:26;;;;;;;73.10;44.40;;;9.00;99.90;;;;;;5058899;28;20094;-83
2021/12/16 08:56:51;;;;;;;89.70;40.13;;;9.20;99.90;;;;;;5057783;28;20377;-81
2021/12/16 08:59:18;;;;;;;88.17;38.10;;;9.40;99.90;;;;;;5057804;28;20033;-82
2021/12/16 09:01:48;;;;;;;72.87;37.30;;;9.50;99.90;;;;;;5060228;28;20025;-81
2021/12/16 09:04:16;;;;;;;60.80;36.73;;;9.50;99.90;;;;;;5059168;28;20040;-82
2021/12/16 09:06:42;;;;;;;62.10;35.53;;;9.70;99.90;;;;;;5057191;28;20028;-82
2021/12/16 09:09:09;;;;;;;56.47;31.97;;;9.90;99.90;;;;;;5039249;28;20044;-81
2021/12/16 09:11:42;;;;;;;53.50;30.17;;;10.00;99.90;;;;;;5055788;28;20017;-82
2021/12/16 09:14:07;;;;;;;59.45;30.00;;;10.10;99.90;;;;;;5056390;28;20021;-81
2021/12/16 09:16:35;;;;;;;60.30;31.53;;;10.20;99.90;;;;;;5040370;28;20021;-82
2021/12/16 09:19:02;;;;;;;45.87;28.93;;;10.30;99.90;;;;;;5055876;28;20057;-81
2021/12/16 09:21:32;;;;;;;55.33;28.93;;;10.30;99.90;;;;;;5056398;28;20029;-82
2021/12/16 09:23:58;;;;;;;46.97;28.07;;;10.40;99.90;;;;;;5055859;28;20032;-80
2021/12/16 09:26:25;;;;;;;44.33;26.70;;;10.40;99.90;;;;;;5060152;28;20032;-84
2021/12/16 09:28:52;;;;;;;38.37;27.20;;;10.50;99.90;;;;;;5044156;28;20050;-82
2021/12/16 09:31:21;;;;;;;40.10;27.70;;;10.60;99.90;;;;;;5061773;28;20103;-83
2021/12/16 09:33:51;;;;;;;42.47;27.53;;;10.70;99.90;;;;;;5060669;28;20053;-82
2021/12/16 09:36:20;;;;;;;40.50;25.77;;;10.80;99.90;;;;;;5064429;28;20017;-82
2021/12/16 09:38:48;;;;;;;43.00;26.93;;;10.90;99.90;;;;;;5044688;28;20063;-84
2021/12/16 09:41:16;;;;;;;40.27;27.37;;;10.90;99.90;;;;;;5061537;28;20440;-81
2021/12/16 09:43:45;;;;;;;35.43;26.80;;;10.90;99.90;;;;;;5061202;28;20025;-82
2021/12/16 09:46:15;;;;;;;36.00;26.40;;;11.00;99.90;;;;;;5058916;28;20036;-83
2021/12/16 09:48:42;;;;;;;39.33;26.87;;;11.20;99.90;;;;;;5058862;28;20530;-81
2021/12/16 09:51:16;;;;;;;37.10;26.73;;;11.30;99.70;;;;;;5056169;28;20021;-83
2021/12/16 09:53:43;;;;;;;35.17;27.67;;;11.50;99.40;;;;;;5058224;28;20334;-82
2021/12/16 09:56:11;;;;;;;35.00;26.73;;;11.70;99.30;;;;;;5058250;28;20021;-84
2021/12/16 09:58:40;;;;;;;37.93;26.77;;;11.80;99.00;;;;;;5062687;28;20035;-83
2021/12/16 10:01:11;;;;;;;38.63;27.13;;;12.00;98.60;;;;;;5061771;28;20094;-83
2021/12/16 10:03:43;;;;;;;37.00;27.70;;;12.10;98.30;;;;;;5062691;28;20025;-83
2021/12/16 10:06:10;;;;;;;34.87;26.53;;;12.20;98.10;;;;;;5062884;28;20025;-82
2021/12/16 10:08:36;;;;;;;38.70;27.37;;;12.30;97.70;;;;;;5063797;28;20037;-82
2021/12/16 10:11:06;;;;;;;36.03;26.83;;;12.40;97.50;;;;;;5062827;28;20078;-81
2021/12/16 10:13:47;;;;;;;36.67;27.73;;;12.70;97.60;;;;;;5064718;28;20464;-83
2021/12/16 10:18:58;;;;;;;35.47;26.40;;;13.50;96.50;;;;;;5064547;28;20530;-84
2021/12/16 10:21:27;;;;;;;33.25;25.90;;;13.80;95.50;;;;;;5064393;28;20013;-84
2021/12/16 10:23:53;;;;;;;32.72;26.48;;;14.00;95.20;;;;;;5065330;28;20540;-84
2021/12/16 10:26:23;;;;;;;34.15;25.80;;;14.20;94.50;;;;;;5031006;28;20060;-81
2021/12/16 10:28:52;;;;;;;36.72;27.40;;;14.30;94.00;;;;;;5063567;28;20472;-83
2021/12/16 10:31:34;;;;;;;36.90;27.17;;;14.30;92.80;;;;;;5064093;28;20075;-84
2021/12/16 10:34:07;;;;;;;41.22;28.85;;;14.20;93.00;;;;;;5063600;28;20082;-82
2021/12/16 10:36:47;;;;;;;37.88;28.25;;;14.30;93.60;;;;;;5064478;28;20025;-83
2021/12/16 10:39:17;;;;;;;38.97;28.45;;;14.30;93.60;;;;;;5064592;28;20124;-84
2021/12/16 10:41:48;;;;;;;44.15;30.95;;;14.40;93.70;;;;;;5063618;28;20384;-82
2021/12/16 10:44:20;;;;;;;43.30;31.55;;;14.40;93.20;;;;;;5063312;28;20017;-82
2021/12/16 10:46:50;;;;;;;47.67;33.53;;;14.20;93.20;;;;;;5063273;28;20052;-83
2021/12/16 10:49:18;;;;;;;48.15;33.92;;;13.90;93.50;;;;;;5063454;28;20069;-84
2021/12/16 10:52:11;;;;;;;48.20;34.53;;;13.90;93.90;;;;;;5063584;28;20029;-83
2021/12/16 10:54:39;;;;;;;49.40;34.97;;;13.80;94.50;;;;;;5060876;28;20037;-84
2021/12/16 10:57:16;;;;;;;46.15;33.10;;;14.20;94.60;;;;;;5062829;28;20017;-84
2021/12/16 10:59:45;;;;;;;46.58;33.45;;;14.50;94.10;;;;;;5063625;28;20115;-83
2021/12/16 11:02:24;;;;;;;45.08;32.78;;;14.90;93.50;;;;;;5063300;28;20025;-82
2021/12/16 11:04:57;;;;;;;42.47;32.10;;;15.30;92.50;;;;;;5063240;28;20021;-83
2021/12/16 11:08:00;;;;;;;42.28;31.70;;;15.50;91.60;;;;;;5062825;28;20051;-84
2021/12/16 11:10:38;;;;;;;44.03;31.80;;;15.60;90.60;;;;;;5051497;28;20037;-83
2021/12/16 11:13:09;;;;;;;37.58;30.27;;;15.50;90.40;;;;;;5060602;28;20137;-84
2021/12/16 11:15:36;;;;;;;46.67;31.20;;;15.40;90.40;;;;;;5062001;28;20036;-82
2021/12/16 11:18:06;;;;;;;40.47;29.77;;;15.30;91.00;;;;;;5060575;28;20036;-83
2021/12/16 11:20:39;;;;;;;42.15;30.58;;;15.20;90.80;;;;;;5059562;28;20039;-83
2021/12/16 11:23:14;;;;;;;42.92;29.95;;;15.10;91.30;;;;;;5060607;28;20021;-83
2021/12/16 11:25:42;;;;;;;39.33;28.90;;;14.90;91.60;;;;;;5060001;28;20036;-86
2021/12/16 11:28:33;;;;;;;38.28;27.90;;;14.80;92.20;;;;;;5062614;28;20033;-84
2021/12/16 11:31:24;;;;;;;40.45;29.58;;;14.70;92.60;;;;;;5063062;28;20029;-82
2021/12/16 11:34:00;;;;;;;37.33;29.45;;;14.70;92.80;;;;;;5060486;28;20374;-83
2021/12/16 11:36:30;;;;;;;37.85;27.63;;;14.80;93.00;;;;;;5060406;28;20032;-83
2021/12/16 11:39:05;;;;;;;35.17;26.38;;;14.80;92.80;;;;;;5059660;28;20048;-82
2021/12/16 11:41:35;;;;;;;37.58;28.58;;;14.80;92.80;;;;;;5055630;28;20086;-82
2021/12/16 11:44:29;;;;;;;36.63;27.45;;;14.70;93.00;;;;;;5054480;28;20032;-82
2021/12/16 11:47:03;;;;;;;;;;;14.80;93.00;;;;;;5056355;28;20086;-82
2021/12/16 11:49:33;;;;;;;35.08;25.85;;;14.70;93.00;;;;;;5055576;28;19913;-82
2021/12/16 11:52:19;;;;;;;35.65;26.13;;;14.70;93.30;;;;;;5054401;28;20078;-82
2021/12/16 11:54:53;;;;;;;34.17;25.92;;;14.70;93.10;;;;;;5055010;28;20021;-80
2021/12/16 11:57:31;;;;;;;34.25;26.25;;;14.80;93.20;;;;;;5054946;28;20178;-81
2021/12/16 12:00:07;;;;;;;32.92;25.33;;;14.80;93.30;;;;;;5053941;28;20024;-82
2021/12/16 12:02:49;;;;;;;34.65;26.05;;;14.90;93.40;;;;;;5053597;28;20032;-83
2021/12/16 12:05:30;;;;;;;36.53;25.85;;;15.00;93.10;;;;;;5054819;28;20033;-82
2021/12/16 12:08:00;;;;;;;34.55;26.50;;;14.90;92.50;;;;;;5053802;28;20064;-84
2021/12/16 12:10:58;;;;;;;31.92;22.15;;;15.00;92.40;;;;;;5053395;28;20117;-84
2021/12/16 12:13:37;;;;;;;30.77;21.90;;;15.10;92.30;;;;;;5047204;28;20052;-83
2021/12/16 12:16:13;;;;;;;29.67;20.17;;;15.10;92.50;;;;;;5054581;28;20021;-83
2021/12/16 12:18:42;;;;;;;25.67;19.27;;;14.90;92.10;;;;;;5053086;28;20029;-82
2021/12/16 12:22:02;;;;;;;25.95;19.58;;;14.80;92.10;;;;;;5053232;28;20036;-83
2021/12/16 12:24:40;;;;;;;28.52;19.60;;;14.70;92.40;;;;;;5015594;28;20095;-83
2021/12/16 12:27:09;;;;;;;26.27;19.23;;;14.50;92.80;;;;;;5053204;28;20035;-82
2021/12/16 12:29:50;;;;;;;27.27;19.60;;;14.40;92.90;;;;;;5053724;28;20032;-82
2021/12/16 12:32:27;;;;;;;28.73;19.75;;;14.40;93.10;;;;;;5052937;28;20021;-80
2021/12/16 12:35:10;;;;;;;25.67;19.27;;;14.30;93.40;;;;;;5053235;28;20029;-81
2021/12/16 12:37:39;;;;;;;26.33;19.75;;;14.30;93.30;;;;;;5052720;28;20021;-81
2021/12/16 12:40:11;;;;;;;25.15;19.95;;;14.30;93.60;;;;;;5052611;28;20091;-81
2021/12/16 12:42:37;;;;;;;26.67;19.47;;;14.20;93.70;;;;;;5052682;28;20401;-80
2021/12/16 12:45:08;;;;;;;25.15;18.27;;;14.20;93.60;;;;;;5054462;28;20025;-80
2021/12/16 12:47:37;;;;;;;23.90;17.63;;;14.20;93.60;;;;;;5036688;28;20047;-80
2021/12/16 12:50:17;;;;;;;25.40;18.35;;;14.10;93.70;;;;;;5053636;28;20029;-80
2021/12/16 12:52:46;;;;;;;25.10;17.73;;;14.00;94.00;;;;;;5052967;28;20028;-80
2021/12/16 12:55:17;;;;;;;24.67;16.60;;;13.90;94.00;;;;;;5052573;28;20037;-79
2021/12/16 12:57:45;;;;;;;21.98;17.25;;;13.90;94.20;;;;;;5054005;28;20116;-80
2021/12/16 13:00:35;;;;;;;25.08;17.38;;;13.90;94.50;;;;;;5037576;28;20032;-80
2021/12/16 13:03:11;;;;;;;22.38;16.73;;;13.90;94.30;;;;;;5053791;28;20017;-80
2021/12/16 13:05:38;;;;;;;22.77;16.77;;;13.90;94.40;;;;;;5067549;28;20017;-79
2021/12/16 13:08:09;;;;;;;21.75;17.20;;;13.90;94.50;;;;;;5051671;28;20044;-80
2021/12/16 13:10:42;;;;;;;22.30;16.20;;;13.90;94.50;;;;;;5063135;28;20035;-80
2021/12/16 13:16:56;;;;;;;24.70;16.88;;;13.80;94.60;;;;;;5056189;28;20041;-82
2021/12/16 13:27:37;;;;;;;27.63;18.13;;;13.60;94.70;;;;;;5053041;28;20045;-79
2021/12/16 13:30:19;;;;;;;25.83;18.38;;;13.60;94.70;;;;;;5052529;28;20021;-78
2021/12/16 13:33:25;;;;;;;24.33;18.08;;;13.50;95.10;;;;;;5054937;28;20032;-80
2021/12/16 13:36:14;;;;;;;25.98;18.05;;;13.60;95.20;;;;;;5060462;28;20386;-80
2021/12/16 13:38:47;;;;;;;25.75;17.58;;;13.50;95.30;;;;;;5060509;28;20454;-80
2021/12/16 13:41:20;;;;;;;24.00;16.75;;;13.50;95.40;;;;;;5059371;28;20043;-80
2021/12/16 13:44:00;;;;;;;;;;;13.50;95.40;;;;;;5058849;28;20029;-81
2021/12/16 13:46:41;;;;;;;26.50;17.65;;;13.50;95.40;;;;;;5059978;28;19905;-81
2021/12/16 14:04:04;;;;;;;30.95;23.05;;;13.30;95.60;;;;;;5060598;28;20037;-81
2021/12/16 14:06:54;;;;;;;44.30;29.02;;;13.10;95.90;;;;;;5059437;28;20488;-80
2021/12/16 14:09:28;;;;;;;47.90;34.38;;;12.90;96.50;;;;;;5058677;28;20072;-80
2021/12/16 14:14:59;;;;;;;50.70;35.90;;;12.40;97.80;;;;;;5058460;28;20123;-82
2021/12/16 14:17:46;;;;;;;60.57;38.60;;;12.30;98.30;;;;;;5057873;28;20450;-80
2021/12/16 14:23:09;;;;;;;63.57;41.90;;;12.30;98.90;;;;;;5059738;28;20515;-81
2021/12/16 14:41:37;;;;;;;70.97;47.93;;;11.60;99.90;;;;;;5062506;28;20041;-81
2021/12/16 14:47:29;;;;;;;75.97;50.30;;;11.40;99.90;;;;;;5058342;28;20096;-81
2021/12/16 14:49:56;;;;;;;75.47;48.60;;;11.30;99.90;;;;;;5056550;28;20025;-81
2021/12/16 14:52:32;;;;;;;83.83;52.47;;;11.20;99.90;;;;;;5058000;28;20330;-81
2021/12/16 14:55:08;;;;;;;86.10;51.57;;;11.10;99.90;;;;;;5040693;28;20045;-81
2021/12/16 14:57:38;;;;;;;82.87;52.20;;;10.90;99.90;;;;;;5056242;28;20029;-81
2021/12/16 15:00:43;;;;;;;102.53;64.30;;;10.90;99.90;;;;;;5057793;28;20035;-81
2021/12/16 15:03:35;;;;;;;99.57;63.13;;;10.90;99.90;;;;;;5059137;28;20029;-81
2021/12/16 15:06:06;;;;;;;94.60;57.27;;;10.90;99.90;;;;;;5057542;28;20088;-82
2021/12/16 15:08:44;;;;;;;94.97;58.27;;;10.90;99.90;;;;;;5055997;28;20040;-80
2021/12/16 15:11:13;;;;;;;97.33;58.33;;;10.90;99.90;;;;;;5055116;28;20111;-81
2021/12/16 15:13:49;;;;;;;95.67;56.77;;;10.90;99.90;;;;;;5055851;28;20450;-81
2021/12/16 15:35:55;;;;;;;91.03;53.80;;;10.70;99.90;;;;;;5055279;28;20036;-82
2021/12/16 15:43:50;;;;;;;84.53;51.50;;;10.50;99.90;;;;;;5054340;28;20116;-81
2021/12/16 15:46:26;;;;;;;84.47;54.13;;;10.50;99.90;;;;;;5055491;28;20374;-81
2021/12/16 15:48:52;;;;;;;92.00;56.20;;;10.50;99.90;;;;;;5054220;28;20124;-80
2021/12/16 15:51:21;;;;;;;85.23;54.77;;;10.60;99.90;;;;;;5037423;28;20033;-80
2021/12/16 15:53:52;;;;;;;84.63;54.50;;;10.70;99.90;;;;;;5053801;28;20055;-81
2021/12/16 15:56:27;;;;;;;86.77;53.23;;;10.70;99.90;;;;;;5055123;28;20021;-80
2021/12/16 15:59:13;;;;;;;79.73;52.40;;;10.80;99.90;;;;;;5053818;28;20407;-81
2021/12/16 16:01:43;;;;;;;80.40;52.57;;;10.70;99.90;;;;;;5054229;28;20013;-80
2021/12/16 16:04:14;;;;;;;88.07;57.10;;;10.80;99.90;;;;;;5053558;28;20017;-80
2021/12/16 16:06:42;;;;;;;90.00;57.83;;;10.90;99.90;;;;;;5053726;28;20028;-82
2021/12/16 16:09:10;;;;;;;87.90;55.73;;;10.90;99.90;;;;;;5054560;28;20032;-80
2021/12/16 16:11:44;;;;;;;92.77;55.10;;;10.90;99.90;;;;;;5054140;28;20479;-79
2021/12/16 16:14:10;;;;;;;84.77;52.90;;;11.00;99.90;;;;;;5054734;28;20476;-80
2021/12/16 16:16:44;;;;;;;88.07;55.40;;;11.00;99.90;;;;;;5053471;28;20028;-79
2021/12/16 16:19:13;;;;;;;87.40;55.73;;;11.00;99.90;;;;;;5054531;28;20025;-80
2021/12/16 16:21:43;;;;;;;90.73;57.13;;;11.00;99.90;;;;;;5053328;28;20037;-79
2021/12/16 16:24:12;;;;;;;88.93;57.43;;;11.00;99.90;;;;;;5054037;28;20040;-80
2021/12/16 16:26:40;;;;;;;83.40;52.23;;;11.00;99.90;;;;;;5054651;28;20025;-78
2021/12/16 16:29:12;;;;;;;100.30;60.87;;;11.00;99.90;;;;;;5054371;28;20037;-81
2021/12/16 16:31:39;;;;;;;111.13;64.97;;;10.90;99.90;;;;;;5052845;28;20029;-80